METAR Data
IDs: Format: Raw Decoded Include TAF

Data at: 0148 UTC 24 Oct 2019

METAR for:KCWI (Clinton Muni, IA, US)
Text:KCWI 240056Z AUTO 01017KT 10SM OVC070 08/06 A2995 RMK AO2 RAB31E54 SLP152 P0000 T00830056
Temperature: 8.3°C ( 47°F)
Dewpoint: 5.6°C ( 42°F) [RH = 83%]
Pressure (altimeter):29.95 inches Hg (1014.3 mb) [Sea level pressure: 1015.2 mb]
Winds:from the N (10 degrees) at 20 MPH (17 knots; 8.7 m/s)
Visibility:10 or more sm (16+ km)
Ceiling:7000 feet AGL
Clouds: overcast cloud deck at 7000 feet AGL
QC Flag:automated observation with no human augmentation